Ogden, IL (61859)

7:49 AM CDT on May 29, 2015 (GMT -0500)
Crestlake | | Change Station
CLOSE
Current Station
Personal Weather Station
Location: Saint Joseph, IL
Elevation: 678 ft
Nearby Weather Stations

Elev 678 ft 40.11 °N, 88.03 °W | Updated 5 seconds ago

Clear
Clear
72.0 °F
Feels Like 71 °F
N
2.7
Wind Variable Wind from SSE
Gusts 4.7 mph

Today
High -- | Low -- °F
--% Chance of Precip.
Yesterday
High -- | Low -- °F
Precip. -- in
5:26 AM 8:12 PM
Waxing Gibbous, 83% visible
Pressure 30.08 in
Visibility 10.0 miles
Clouds Scattered Clouds 3500 ft
Mostly Cloudy 5500 ft
Overcast 9500 ft
Heat Index 71 °F
Dew Point 67 °F
Humidity 84%
Rainfall 0.00 in
Snow Depth Not available.
UV 1 out of 12
Pollen 8.50 out of 12
Air Quality Not available.
Flu Activity Sporadic
METAR KTIP 291235Z AUTO 17007KT 10SM SCT035 BKN055 OVC095 22/19 A3008 RMK AO2 T02180193

More Conditions Fewer Conditions

Pressure 30.08 in
Visibility 10.0 miles
Clouds Scattered Clouds 3500 ft
Mostly Cloudy 5500 ft
Overcast 9500 ft
Heat Index 71 °F
Dew Point 67 °F
Humidity 84%
Rainfall 0.00 in
Snow Depth Not available.
UV 1 out of 12
Pollen 8.50 out of 12
Air Quality Not available.
Flu Activity Sporadic
METAR KTIP 291235Z AUTO 17007KT 10SM SCT035 BKN055 OVC095 22/19 A3008 RMK AO2 T02180193

More Conditions Fewer Conditions

10-Day Weather Forecast

Almanac

Astronomy

May. 29, 2015 Rise Set
Actual Time
Civil Twilight
Nautical Twilight
Astronomical Twilight
Moon
Length of Visible Light
Length of Day
Tomorrow will be .
, % of the Moon is Illuminated

Today's Extremes

State Highs State Lows

Community

WunderPhotos

Upload Photos

1,825,249 photos uploaded!

WunderBlogs® & News

Nearby

Air Quality

  Air Quality AQ Index Pollutant
Not available.

Snow Depth

Station Depth Elevation

Earthquake Activity

City Distance Mag. Time & Date
Minimum magnitude displayed is 2.5.

Coastal Water Temperatures

Place Temperature

Stations

Nearby Weather Stations

Station Location Temp. Windchill Dew Point Humidity Wind Precip. Elev Updated Type